Time;durP1;ratioP1;P1;durP2;ratioP2;P2;SDS_P1;SDS_P2;PMS_P1;PMS_P2;Temp;Humidity;BMP_temperature;BMP_pressure;BME280_temperature;BME280_humidity;BME280_pressure;Samples;Min_cycle;Max_cycle;Signal;HPM_P1;HPM_P2
2022/08/12 14:19:12;;;;;;;8.25;2.25;;;29.10;55.40;;;;;;5107656;27;1311662;-50
2022/08/12 14:21:50;;;;;;;6.20;2.05;;;28.80;57.00;;;;;;5123902;28;20047;-51
2022/08/12 14:24:33;;;;;;;6.80;2.17;;;28.80;56.20;;;;;;5130811;28;20084;-56
2022/08/12 14:27:01;;;;;;;4.70;1.92;;;28.90;56.00;;;;;;5129662;27;20047;-54
2022/08/12 14:29:30;;;;;;;6.13;1.90;;;28.90;56.10;;;;;;5130878;28;20035;-45
2022/08/12 14:32:16;;;;;;;6.03;1.95;;;29.00;55.00;;;;;;5111315;27;20559;-51
2022/08/12 14:34:43;;;;;;;7.70;1.80;;;29.10;55.10;;;;;;5121230;28;20035;-48
2022/08/12 14:37:10;;;;;;;10.40;2.10;;;29.20;55.10;;;;;;5125127;28;20059;-52
2022/08/12 14:39:57;;;;;;;7.80;1.90;;;29.20;54.70;;;;;;5110752;28;20402;-48
2022/08/12 14:42:24;;;;;;;4.38;2.00;;;29.20;54.00;;;;;;5108488;28;20039;-55
2022/08/12 14:44:51;;;;;;;3.58;1.75;;;29.20;53.70;;;;;;5115649;28;20043;-55
2022/08/12 14:47:25;;;;;;;3.90;1.80;;;29.20;54.40;;;;;;5121377;28;20081;-52
2022/08/12 14:49:54;;;;;;;5.22;1.70;;;29.20;54.00;;;;;;5121955;28;20425;-52
2022/08/12 14:52:42;;;;;;;4.15;1.88;;;29.30;53.60;;;;;;5128461;28;20100;-49
2022/08/12 14:55:32;;;;;;;6.78;1.92;;;29.30;53.00;;;;;;5108768;28;20036;-56
2022/08/12 14:58:19;;;;;;;7.63;1.58;;;29.30;54.30;;;;;;5124314;28;20046;-54
2022/08/12 15:03:32;;;;;;;6.57;1.80;;;29.50;53.30;;;;;;5129968;28;20067;-54
2022/08/12 15:06:21;;;;;;;4.57;2.10;;;29.50;52.90;;;;;;5129879;28;20134;-50
2022/08/12 15:09:07;;;;;;;4.97;1.80;;;29.50;53.10;;;;;;5129692;27;20052;-49
2022/08/12 15:11:37;;;;;;;5.97;1.90;;;29.40;53.40;;;;;;5129688;28;20095;-53
2022/08/12 15:14:24;;;;;;;8.00;2.00;;;29.40;53.60;;;;;;5129904;27;20452;-55
2022/08/12 15:16:51;;;;;;;4.32;1.90;;;29.40;53.20;;;;;;5129748;27;20047;-46
2022/08/12 15:19:18;;;;;;;4.57;1.90;;;29.40;53.20;;;;;;5126249;27;20051;-51
2022/08/12 15:22:05;;;;;;;9.55;1.92;;;29.40;53.80;;;;;;5116731;28;20064;-48
2022/08/12 15:24:52;;;;;;;8.60;1.90;;;29.40;54.00;;;;;;5121502;28;20044;-49
2022/08/12 15:27:18;;;;;;;8.85;2.03;;;29.40;53.80;;;;;;5111555;28;20047;-50
2022/08/12 15:29:56;;;;;;;8.20;2.10;;;29.50;54.10;;;;;;5100065;28;20062;-55
2022/08/12 15:32:23;;;;;;;4.68;2.00;;;29.50;54.10;;;;;;5096143;28;20063;-53
2022/08/12 15:34:59;;;;;;;6.80;1.90;;;29.50;53.90;;;;;;5096203;28;20078;-45
2022/08/12 15:37:26;;;;;;;5.38;1.90;;;29.40;54.10;;;;;;5096179;28;20395;-49
2022/08/12 15:40:13;;;;;;;5.30;2.13;;;29.50;54.60;;;;;;5096175;28;20098;-46
2022/08/12 15:42:45;;;;;;;5.90;1.95;;;29.50;53.90;;;;;;5096034;28;20131;-49
2022/08/12 15:45:17;;;;;;;5.47;1.90;;;29.50;54.40;;;;;;5096170;28;20122;-46
2022/08/12 15:47:51;;;;;;;6.05;2.00;;;29.50;54.20;;;;;;5096030;28;20445;-52
2022/08/12 15:50:38;;;;;;;5.05;1.85;;;29.60;54.00;;;;;;5103577;28;20092;-52
2022/08/12 15:53:11;;;;;;;5.43;2.05;;;29.50;54.30;;;;;;5115344;28;20100;-56
2022/08/12 15:55:40;;;;;;;5.78;1.90;;;29.50;53.70;;;;;;5115189;28;20051;-51
2022/08/12 15:58:12;;;;;;;4.80;1.80;;;29.50;53.50;;;;;;5115318;28;20054;-52
2022/08/12 16:00:42;;;;;;;6.47;1.70;;;29.50;53.50;;;;;;5111414;28;20105;-52
2022/08/12 16:03:09;;;;;;;5.80;1.90;;;29.60;54.00;;;;;;5112097;28;20438;-48
2022/08/12 16:05:45;;;;;;;5.82;1.83;;;29.60;53.90;;;;;;5115172;28;20075;-51
2022/08/12 16:08:38;;;;;;;4.78;1.70;;;29.60;53.80;;;;;;5102408;28;20064;-49
2022/08/12 16:11:05;;;;;;;9.48;2.00;;;29.70;54.00;;;;;;5109611;28;20096;-53
2022/08/12 16:13:40;;;;;;;4.28;1.70;;;29.80;53.90;;;;;;5110427;28;20092;-52
2022/08/12 16:16:09;;;;;;;7.72;2.03;;;29.90;52.70;;;;;;5114859;28;20050;-49
2022/08/12 16:18:51;;;;;;;3.10;2.05;;;30.30;52.60;;;;;;5111501;28;20044;-52
2022/08/12 16:21:23;;;;;;;7.75;2.00;;;30.90;53.00;;;;;;5104156;28;20067;-50
2022/08/12 16:24:10;;;;;;;4.95;1.70;;;31.40;52.00;;;;;;5095431;28;20036;-47
2022/08/12 16:26:39;;;;;;;6.00;2.17;;;31.90;51.60;;;;;;5106746;28;20040;-54
2022/08/12 16:29:06;;;;;;;5.93;1.95;;;32.20;50.50;;;;;;5094957;28;20138;-54
2022/08/12 16:31:41;;;;;;;5.40;1.80;;;32.30;50.60;;;;;;5095757;28;20375;-53
2022/08/12 16:34:14;;;;;;;6.38;2.03;;;32.50;51.10;;;;;;5114634;28;20116;-52
2022/08/12 16:37:01;;;;;;;4.90;1.70;;;32.80;51.00;;;;;;5114652;28;20084;-49
2022/08/12 16:39:29;;;;;;;6.82;1.75;;;32.70;48.70;;;;;;5114490;27;20076;-52
2022/08/12 16:41:58;;;;;;;6.40;1.92;;;32.70;48.90;;;;;;5113439;28;20047;-58
2022/08/12 16:44:25;;;;;;;4.25;1.90;;;32.90;49.50;;;;;;5113289;28;20047;-54
2022/08/12 16:46:58;;;;;;;4.20;1.92;;;32.90;48.30;;;;;;5113690;28;20035;-49
2022/08/12 16:49:25;;;;;;;10.30;1.77;;;32.70;49.20;;;;;;5100718;28;20047;-56
2022/08/12 16:52:02;;;;;;;8.75;1.80;;;32.90;49.60;;;;;;5107666;28;20529;-49
2022/08/12 16:54:28;;;;;;;8.68;1.63;;;33.10;50.20;;;;;;5101447;28;20040;-50
2022/08/12 16:57:02;;;;;;;5.18;1.80;;;33.20;49.30;;;;;;5108324;28;20104;-49
2022/08/12 16:59:31;;;;;;;7.60;2.10;;;33.10;49.50;;;;;;5112806;28;20440;-47
2022/08/12 17:02:18;;;;;;;4.97;2.08;;;33.20;50.50;;;;;;5094509;28;20472;-50
2022/08/12 17:05:00;;;;;;;4.97;1.90;;;33.40;50.00;;;;;;5099958;28;20058;-53
2022/08/12 17:07:31;;;;;;;5.85;1.88;;;33.20;50.00;;;;;;5112589;28;20390;-56
2022/08/12 17:10:02;;;;;;;5.47;1.80;;;33.10;49.10;;;;;;5107610;28;20040;-55
2022/08/12 17:12:30;;;;;;;6.20;1.88;;;33.10;48.90;;;;;;5094101;28;20044;-61
2022/08/12 17:14:57;;;;;;;5.45;1.80;;;33.10;49.50;;;;;;5094437;28;20044;-51
2022/08/12 17:17:26;;;;;;;5.10;1.70;;;33.00;49.00;;;;;;5094216;28;20410;-55
2022/08/12 17:20:05;;;;;;;2.92;1.65;;;33.20;49.00;;;;;;5094820;28;20048;-48
2022/08/12 17:22:56;;;;;;;4.63;1.88;;;33.10;49.00;;;;;;5113825;28;20035;-58
2022/08/12 17:25:22;;;;;;;4.53;2.00;;;33.20;49.20;;;;;;5112432;28;20040;-54
2022/08/12 17:27:49;;;;;;;4.47;2.15;;;33.20;48.10;;;;;;5113600;28;20085;-56
2022/08/12 17:30:23;;;;;;;5.15;1.50;;;33.20;48.60;;;;;;5113586;28;20046;-52
2022/08/12 17:32:50;;;;;;;6.93;1.70;;;33.10;48.50;;;;;;5113312;28;20039;-54
2022/08/12 17:35:28;;;;;;;4.72;1.73;;;33.10;48.60;;;;;;5113553;27;20049;-52
2022/08/12 17:38:03;;;;;;;5.43;1.77;;;33.20;48.30;;;;;;5113427;28;20051;-53
2022/08/12 17:40:30;;;;;;;5.57;1.60;;;33.10;48.60;;;;;;5113449;28;20047;-56
2022/08/12 17:43:01;;;;;;;10.63;1.75;;;33.00;48.60;;;;;;5113405;28;20035;-55
2022/08/12 17:45:48;;;;;;;5.30;1.60;;;32.90;49.00;;;;;;5101663;28;20466;-52
2022/08/12 17:48:16;;;;;;;10.00;1.80;;;32.90;48.80;;;;;;5106780;28;20043;-49
2022/08/12 17:50:44;;;;;;;8.02;1.85;;;32.90;48.80;;;;;;5106229;28;20031;-44
2022/08/12 17:53:11;;;;;;;4.60;1.60;;;32.80;49.10;;;;;;5108454;28;20404;-54
2022/08/12 17:55:43;;;;;;;2.95;1.52;;;32.70;49.40;;;;;;5110596;28;20052;-49
2022/08/12 17:58:17;;;;;;;2.45;1.35;;;32.70;50.00;;;;;;5112159;28;20134;-55
2022/08/12 18:00:50;;;;;;;5.85;1.48;;;32.90;49.90;;;;;;5102344;28;20148;-49
2022/08/12 18:03:20;;;;;;;5.63;1.90;;;32.70;49.80;;;;;;5106460;28;20066;-54
2022/08/12 18:06:07;;;;;;;5.55;1.70;;;32.60;50.30;;;;;;5107052;28;20047;-50
2022/08/12 18:08:42;;;;;;;7.80;1.58;;;32.50;50.80;;;;;;5103171;28;20068;-50
2022/08/12 18:14:26;;;;;;;5.47;1.90;;;32.50;51.00;;;;;;5106765;28;20036;-53
2022/08/12 18:16:54;;;;;;;5.45;1.90;;;32.70;51.30;;;;;;5091537;28;20142;-55
2022/08/12 18:19:22;;;;;;;8.68;1.80;;;32.60;51.20;;;;;;5104109;28;20081;-51
2022/08/12 18:21:50;;;;;;;5.45;1.98;;;32.50;51.90;;;;;;5112770;28;20035;-50
2022/08/12 18:24:28;;;;;;;7.63;1.90;;;32.40;52.00;;;;;;5113165;28;20063;-48
2022/08/12 18:26:55;;;;;;;7.70;1.80;;;32.40;52.50;;;;;;5112603;28;20048;-51
2022/08/12 18:29:22;;;;;;;6.80;1.90;;;32.30;52.30;;;;;;5111957;28;20063;-51
2022/08/12 18:31:52;;;;;;;4.60;1.80;;;32.00;52.70;;;;;;5092098;28;20070;-48
2022/08/12 18:34:34;;;;;;;7.68;1.90;;;31.40;53.50;;;;;;5092165;28;20089;-50
2022/08/12 18:37:02;;;;;;;5.20;2.22;;;31.00;54.40;;;;;;5092129;28;20036;-45
2022/08/12 18:42:34;;;;;;;5.57;1.80;;;30.10;56.00;;;;;;5105483;28;20119;-48
2022/08/12 18:45:01;;;;;;;7.65;2.05;;;29.80;56.90;;;;;;5105215;28;20376;-48
2022/08/12 18:47:30;;;;;;;5.43;2.10;;;29.60;57.40;;;;;;5101817;28;20055;-56
2022/08/12 18:50:15;;;;;;;6.30;2.03;;;29.30;57.80;;;;;;5093030;28;20044;-55
2022/08/12 18:52:43;;;;;;;7.32;2.10;;;29.10;58.40;;;;;;5091830;28;20032;-48
2022/08/12 18:55:14;;;;;;;9.88;2.20;;;28.90;58.90;;;;;;5092981;28;20105;-50
2022/08/12 18:57:43;;;;;;;7.10;2.20;;;28.70;59.00;;;;;;5075367;28;20146;-51
2022/08/12 19:00:29;;;;;;;5.53;2.10;;;28.50;59.50;;;;;;5112812;28;20043;-55
2022/08/12 19:02:57;;;;;;;9.27;2.45;;;28.40;60.20;;;;;;5106020;28;20436;-44
2022/08/12 19:05:24;;;;;;;7.07;2.28;;;28.20;60.30;;;;;;5108815;28;20414;-50
2022/08/12 19:08:10;;;;;;;7.78;2.47;;;28.00;61.00;;;;;;5116374;28;20618;-47
2022/08/12 19:10:38;;;;;;;7.22;2.10;;;27.80;61.20;;;;;;5116113;28;20032;-52
2022/08/12 19:15:59;;;;;;;7.70;2.10;;;27.50;62.30;;;;;;5116071;28;20047;-53
2022/08/12 19:18:27;;;;;;;8.43;2.13;;;27.30;62.80;;;;;;5116021;28;20054;-53
2022/08/12 19:20:57;;;;;;;11.07;2.40;;;27.20;63.70;;;;;;5109157;28;20042;-51
2022/08/12 19:23:24;;;;;;;7.85;2.30;;;27.10;63.80;;;;;;5096319;28;20391;-51
2022/08/12 19:26:01;;;;;;;8.07;2.40;;;27.00;64.10;;;;;;5096361;28;20039;-56
2022/08/12 19:28:28;;;;;;;6.80;2.58;;;26.80;64.40;;;;;;5103749;28;20065;-56
2022/08/12 19:34:07;;;;;;;5.28;2.13;;;26.60;65.50;;;;;;5109118;28;20043;-51
2022/08/12 19:36:54;;;;;;;10.15;2.38;;;26.40;66.00;;;;;;5096213;28;20044;-54
2022/08/12 19:39:20;;;;;;;8.25;2.65;;;26.30;66.50;;;;;;5096166;28;20098;-53
2022/08/12 19:41:50;;;;;;;5.60;2.30;;;26.20;66.70;;;;;;5096030;28;20391;-52
2022/08/12 19:44:27;;;;;;;9.73;2.72;;;26.10;67.00;;;;;;5096143;28;20109;-55
2022/08/12 19:46:53;;;;;;;8.13;3.20;;;26.00;67.60;;;;;;5095462;28;20035;-51
2022/08/12 19:49:20;;;;;;;9.60;2.80;;;25.90;67.80;;;;;;5096088;28;20040;-57
2022/08/12 19:51:51;;;;;;;8.73;3.10;;;25.90;68.00;;;;;;5113347;28;20074;-54
2022/08/12 19:54:21;;;;;;;10.32;2.58;;;25.80;68.40;;;;;;5115415;28;20077;-52
2022/08/12 19:56:56;;;;;;;8.40;2.50;;;25.70;68.30;;;;;;5102537;28;20036;-45
2022/08/12 19:59:35;;;;;;;14.80;3.28;;;25.60;68.70;;;;;;5095987;28;20036;-54
2022/08/12 20:02:23;;;;;;;6.03;2.78;;;25.60;68.80;;;;;;5111824;28;20089;-53
2022/08/12 20:05:02;;;;;;;11.13;2.75;;;25.50;69.60;;;;;;5108323;28;20514;-53
2022/08/12 20:07:49;;;;;;;6.20;2.63;;;25.40;69.70;;;;;;5115541;28;20052;-48
2022/08/12 20:10:22;;;;;;;4.50;2.70;;;25.30;70.10;;;;;;5115170;28;20062;-50
2022/08/12 20:13:02;;;;;;;6.93;2.72;;;25.30;70.10;;;;;;5115409;28;20043;-51
2022/08/12 20:15:49;;;;;;;8.32;3.08;;;25.20;70.40;;;;;;5107411;28;20454;-53
2022/08/12 20:18:25;;;;;;;6.90;3.00;;;25.10;70.90;;;;;;5107185;28;20101;-51
2022/08/12 20:21:13;;;;;;;9.75;3.03;;;25.00;71.50;;;;;;5115047;28;20478;-47
2022/08/12 20:23:49;;;;;;;10.45;3.22;;;25.00;71.90;;;;;;5096189;27;20059;-50
2022/08/12 20:26:27;;;;;;;10.90;3.28;;;24.90;72.20;;;;;;5095534;28;20044;-46
2022/08/12 20:28:54;;;;;;;7.78;2.90;;;24.90;72.90;;;;;;5095187;28;20036;-47
2022/08/12 20:31:21;;;;;;;12.63;2.90;;;24.80;73.60;;;;;;5095150;28;20036;-49
2022/08/12 20:33:50;;;;;;;6.20;2.70;;;24.70;73.70;;;;;;5095211;28;20041;-56
2022/08/12 20:36:23;;;;;;;;;;;24.70;74.00;;;;;;5104716;28;20475;-55
2022/08/12 20:39:08;;;;;;;7.13;3.15;;;24.60;75.30;;;;;;5114884;28;19924;-49
2022/08/12 20:41:57;;;;;;;11.07;2.92;;;24.60;74.80;;;;;;5114669;28;20423;-49
2022/08/12 20:44:25;;;;;;;7.78;3.03;;;24.50;75.20;;;;;;5114451;28;20047;-48
2022/08/12 20:46:54;;;;;;;8.23;3.05;;;24.40;75.80;;;;;;5113704;28;20036;-52
2022/08/12 20:49:23;;;;;;;10.13;3.15;;;24.30;76.50;;;;;;5094538;28;20090;-44
2022/08/12 20:51:53;;;;;;;8.10;2.90;;;24.30;76.90;;;;;;5101385;28;20089;-48
2022/08/12 20:54:21;;;;;;;7.80;3.00;;;24.20;76.70;;;;;;5114440;28;20039;-46
2022/08/12 20:56:58;;;;;;;8.65;3.00;;;24.10;78.10;;;;;;5112655;28;20089;-43
2022/08/12 20:59:27;;;;;;;7.05;3.25;;;24.10;78.10;;;;;;5094521;28;20044;-48
2022/08/12 21:01:57;;;;;;;8.85;3.50;;;24.00;79.30;;;;;;5094344;28;20055;-51
2022/08/12 21:07:16;;;;;;;8.02;3.22;;;23.90;80.40;;;;;;5113939;28;20573;-50
2022/08/12 21:09:49;;;;;;;6.47;3.65;;;23.90;80.80;;;;;;5114140;28;20032;-44
2022/08/12 21:12:19;;;;;;;9.45;3.38;;;23.80;81.10;;;;;;5094514;28;20482;-57
2022/08/12 21:14:59;;;;;;;9.60;3.33;;;23.80;82.20;;;;;;5094256;28;20039;-48
2022/08/12 21:17:46;;;;;;;11.52;3.33;;;23.70;82.80;;;;;;5094327;28;20106;-49
2022/08/12 21:20:33;;;;;;;9.70;4.28;;;23.60;83.10;;;;;;5095216;28;20036;-52
2022/08/12 21:23:03;;;;;;;12.05;3.70;;;23.60;84.20;;;;;;5112826;28;20058;-47
2022/08/12 21:25:31;;;;;;;9.77;3.95;;;23.50;84.90;;;;;;5100562;28;20055;-55
2022/08/12 21:28:10;;;;;;;8.98;3.60;;;23.50;85.10;;;;;;5113256;28;20040;-54
2022/08/12 21:30:41;;;;;;;8.13;3.67;;;23.40;85.80;;;;;;5113347;28;20470;-53
2022/08/12 21:33:28;;;;;;;10.63;3.63;;;23.30;86.40;;;;;;5113714;28;20115;-52
2022/08/12 21:35:56;;;;;;;11.80;4.20;;;23.40;86.10;;;;;;5113514;28;20042;-53
2022/08/12 21:38:25;;;;;;;10.55;3.92;;;23.30;87.10;;;;;;5113647;28;20038;-53
2022/08/12 21:41:00;;;;;;;11.95;3.80;;;23.30;87.20;;;;;;5113425;28;20043;-52
2022/08/12 21:43:32;;;;;;;9.15;4.13;;;23.30;87.20;;;;;;5113453;28;20043;-57
2022/08/12 21:46:13;;;;;;;18.40;4.55;;;23.20;88.40;;;;;;5113343;28;20044;-48
2022/08/12 21:49:00;;;;;;;10.55;4.68;;;23.10;88.80;;;;;;5113260;28;20444;-53
2022/08/12 21:51:30;;;;;;;10.13;4.93;;;23.10;89.40;;;;;;5113316;28;20089;-49
2022/08/12 21:54:15;;;;;;;14.77;5.80;;;23.10;89.40;;;;;;5104705;28;20067;-52
2022/08/12 21:56:47;;;;;;;14.20;5.80;;;23.10;89.00;;;;;;5093531;28;20044;-52
2022/08/12 21:59:14;;;;;;;19.27;6.15;;;23.00;89.90;;;;;;5093753;28;20055;-50
2022/08/12 22:01:41;;;;;;;12.13;6.03;;;23.00;90.00;;;;;;5093443;28;20036;-51
2022/08/12 22:06:59;;;;;;;16.40;5.80;;;22.90;90.40;;;;;;5112235;28;20043;-49
2022/08/12 22:09:26;;;;;;;9.45;5.82;;;22.90;90.70;;;;;;5113082;28;20028;-53
2022/08/12 22:11:54;;;;;;;13.52;5.60;;;22.80;90.80;;;;;;5113009;28;20036;-47
2022/08/12 22:14:25;;;;;;;12.63;5.40;;;22.80;90.60;;;;;;5113105;28;20158;-54
2022/08/12 22:16:52;;;;;;;10.23;5.47;;;22.80;90.70;;;;;;5113062;28;20036;-47
2022/08/12 22:19:19;;;;;;;14.00;5.35;;;22.80;91.00;;;;;;5112937;28;20058;-51
2022/08/12 22:21:46;;;;;;;12.65;5.18;;;22.70;91.00;;;;;;5112928;28;20046;-47
2022/08/12 22:24:19;;;;;;;10.98;5.80;;;22.70;91.30;;;;;;5113192;28;20047;-45
2022/08/12 22:26:55;;;;;;;15.25;5.90;;;22.70;91.30;;;;;;5098211;28;20135;-54
2022/08/12 22:32:29;;;;;;;11.73;5.15;;;22.60;91.40;;;;;;5064100;28;20044;-47
2022/08/12 22:37:49;;;;;;;13.65;4.88;;;22.50;92.20;;;;;;5079301;28;20092;-46
2022/08/12 22:40:19;;;;;;;15.50;5.03;;;22.50;92.20;;;;;;5096177;28;20086;-48
2022/08/12 22:48:24;;;;;;;14.70;6.45;;;22.30;92.60;;;;;;5099043;28;20383;-49
2022/08/12 22:50:56;;;;;;;11.35;5.35;;;22.30;93.20;;;;;;5115556;28;20047;-48
2022/08/12 22:53:25;;;;;;;16.25;5.68;;;22.30;93.00;;;;;;5116114;28;20051;-51
2022/08/12 22:56:02;;;;;;;11.55;5.70;;;22.30;93.00;;;;;;5116036;27;20406;-49
2022/08/12 22:58:32;;;;;;;9.57;5.40;;;22.20;93.60;;;;;;5116467;27;20047;-57
2022/08/12 23:00:59;;;;;;;11.77;6.38;;;22.20;93.50;;;;;;5116307;28;20039;-52
2022/08/12 23:03:31;;;;;;;11.80;6.00;;;22.10;94.10;;;;;;5116301;28;20482;-45
2022/08/12 23:06:16;;;;;;;15.85;6.38;;;22.10;93.60;;;;;;5112027;28;20059;-53
2022/08/12 23:08:44;;;;;;;12.57;6.95;;;22.10;93.90;;;;;;5114762;28;20405;-45
2022/08/12 23:11:11;;;;;;;14.32;7.30;;;22.10;93.90;;;;;;5115977;28;20039;-55
2022/08/12 23:14:00;;;;;;;14.88;6.50;;;22.10;94.20;;;;;;5115941;28;20071;-49
2022/08/12 23:16:29;;;;;;;15.90;6.63;;;22.10;94.40;;;;;;5116059;28;20130;-53
2022/08/12 23:18:59;;;;;;;18.15;6.75;;;22.00;94.30;;;;;;5115897;28;20063;-51
2022/08/12 23:21:35;;;;;;;12.32;6.70;;;22.00;94.70;;;;;;5116022;28;20101;-49
2022/08/12 23:24:22;;;;;;;16.10;9.32;;;21.90;94.60;;;;;;5113782;28;20043;-51
2022/08/12 23:29:38;;;;;;;16.88;10.02;;;21.80;95.50;;;;;;5115574;28;20039;-51
2022/08/12 23:32:27;;;;;;;15.07;8.52;;;21.80;95.60;;;;;;5103690;28;20035;-49
2022/08/12 23:35:01;;;;;;;15.68;7.78;;;21.80;95.60;;;;;;5110063;28;20043;-49
2022/08/12 23:37:29;;;;;;;13.57;8.40;;;21.70;95.50;;;;;;5107650;28;20386;-53
2022/08/12 23:40:13;;;;;;;15.20;8.13;;;21.70;95.80;;;;;;5104569;28;20046;-48
2022/08/12 23:42:46;;;;;;;14.70;8.35;;;21.70;96.00;;;;;;5116123;28;20371;-48
2022/08/12 23:45:14;;;;;;;14.52;7.72;;;21.60;96.10;;;;;;5096687;27;20067;-46
